Time;durP1;ratioP1;P1;durP2;ratioP2;P2;SDS_P1;SDS_P2;PMS_P1;PMS_P2;Temp;Humidity;BMP_temperature;BMP_pressure;BME280_temperature;BME280_humidity;BME280_pressure;Samples;Min_cycle;Max_cycle;Signal;HPM_P1;HPM_P2
2021/12/27 18:19:30;;;;;;;229.30;45.63;;;0.60;99.90;;;;;;5113072;27;20565;-74
2021/12/27 18:21:58;;;;;;;617.20;88.07;;;0.60;99.90;;;;;;5112163;28;20508;-74
2021/12/27 18:24:27;;;;;;;1999.90;414.60;;;0.60;99.90;;;;;;5110695;28;20487;-72
2021/12/27 18:26:55;;;;;;;1999.90;573.53;;;0.70;99.90;;;;;;5111868;28;20790;-72
2021/12/27 18:29:23;;;;;;;1999.90;668.53;;;0.80;99.90;;;;;;5111552;28;20535;-72
2021/12/27 18:31:52;;;;;;;1999.90;637.97;;;0.90;99.90;;;;;;5112019;28;20461;-72
2021/12/27 18:34:20;;;;;;;1999.90;599.03;;;0.90;99.90;;;;;;5111852;28;20888;-74
2021/12/27 18:36:49;;;;;;;1999.90;603.20;;;1.00;99.90;;;;;;5109944;28;20448;-72
2021/12/27 18:39:18;;;;;;;1978.43;528.80;;;1.10;99.90;;;;;;5111595;28;21033;-71
2021/12/27 18:42:07;;;;;;;1999.90;640.00;;;1.10;99.90;;;;;;5111330;28;20968;-72
2021/12/27 18:44:35;;;;;;;1999.90;581.03;;;1.20;99.90;;;;;;5111561;28;20436;-72
2021/12/27 18:47:03;;;;;;;1502.77;310.30;;;1.20;99.90;;;;;;5111551;28;20441;-72
2021/12/27 18:50:38;;;;;;;1956.70;515.00;;;1.30;99.90;;;;;;5132973;27;20568;-72
2021/12/27 18:53:07;;;;;;;1824.00;510.43;;;1.40;99.90;;;;;;5132188;27;20439;-71
2021/12/27 18:55:36;;;;;;;1921.07;468.23;;;1.40;99.90;;;;;;5132560;27;20441;-72
2021/12/27 18:58:07;;;;;;;1900.13;451.93;;;1.40;99.90;;;;;;5132187;27;21003;-72
2021/12/27 19:00:37;;;;;;;1567.40;348.17;;;1.50;99.90;;;;;;5132079;27;20980;-71
2021/12/27 19:03:07;;;;;;;1345.80;297.73;;;1.50;99.90;;;;;;5132066;28;20776;-72
2021/12/27 19:05:38;;;;;;;1938.53;504.07;;;1.50;99.90;;;;;;5131893;28;20424;-71
2021/12/27 19:08:06;;;;;;;1966.03;514.47;;;1.50;99.90;;;;;;5132000;28;21035;-72
2021/12/27 19:10:34;;;;;;;1594.13;370.87;;;1.60;99.90;;;;;;5131679;28;20469;-72
2021/12/27 19:13:02;;;;;;;1983.63;533.53;;;1.50;99.90;;;;;;5130603;28;20478;-72
2021/12/27 19:15:30;;;;;;;1877.63;458.27;;;1.60;99.90;;;;;;5132118;28;20439;-72
2021/12/27 19:17:59;;;;;;;1578.97;332.40;;;1.60;99.90;;;;;;5132061;28;20427;-73
2021/12/27 19:20:27;;;;;;;1765.23;475.67;;;1.70;99.90;;;;;;5131750;28;20514;-72
2021/12/27 19:22:56;;;;;;;1999.90;666.33;;;1.70;99.90;;;;;;5130513;28;20466;-72
2021/12/27 19:25:25;;;;;;;1793.30;491.43;;;1.70;99.90;;;;;;5132233;27;20530;-72
2021/12/27 19:27:53;;;;;;;1973.43;539.00;;;1.70;99.90;;;;;;5131346;27;20427;-72
2021/12/27 19:30:25;;;;;;;1999.90;585.10;;;1.70;99.90;;;;;;5132049;28;20471;-72
2021/12/27 19:32:53;;;;;;;611.07;203.00;;;1.70;99.90;;;;;;5131705;28;20481;-72
2021/12/27 19:35:23;;;;;;;1594.27;296.97;;;1.80;99.90;;;;;;5130488;28;20443;-72
2021/12/27 19:37:53;;;;;;;1999.90;572.23;;;1.80;99.90;;;;;;5131245;28;20466;-72
2021/12/27 19:40:25;;;;;;;1999.90;686.80;;;1.80;99.90;;;;;;5131893;27;20748;-72
2021/12/27 19:42:53;;;;;;;1999.90;609.23;;;1.80;99.90;;;;;;5132091;27;20872;-72
2021/12/27 19:45:22;;;;;;;581.47;192.87;;;1.80;99.90;;;;;;5131220;28;20466;-72
2021/12/27 19:47:52;;;;;;;1999.90;578.47;;;1.80;99.90;;;;;;5131141;28;20431;-72
2021/12/27 19:50:24;;;;;;;1296.93;345.70;;;1.80;99.90;;;;;;5131386;27;20474;-72
2021/12/27 19:52:53;;;;;;;1941.47;460.97;;;1.90;99.90;;;;;;5131937;27;20510;-72
2021/12/27 19:55:23;;;;;;;820.77;218.63;;;1.90;99.90;;;;;;5131707;27;20441;-72
2021/12/27 19:57:52;;;;;;;600.40;213.00;;;1.90;99.90;;;;;;5131616;28;20844;-72
2021/12/27 20:00:22;;;;;;;1468.37;341.33;;;1.90;99.90;;;;;;5126650;28;20435;-72
2021/12/27 20:02:52;;;;;;;1641.87;335.00;;;1.90;99.90;;;;;;5117765;28;20445;-72
2021/12/27 20:05:22;;;;;;;1333.20;306.07;;;1.90;99.90;;;;;;5117686;28;20446;-72
2021/12/27 20:07:50;;;;;;;1999.90;551.37;;;1.90;99.90;;;;;;5117143;28;20435;-72
2021/12/27 20:10:25;;;;;;;1901.07;425.80;;;1.90;99.90;;;;;;5116865;28;20468;-73
2021/12/27 20:12:58;;;;;;;1999.90;694.77;;;1.90;99.90;;;;;;5116844;28;20504;-72
2021/12/27 20:15:29;;;;;;;1879.77;413.80;;;1.80;99.90;;;;;;5116826;28;20440;-72
2021/12/27 20:17:58;;;;;;;1999.90;649.83;;;1.90;99.90;;;;;;5117616;28;20799;-72
2021/12/27 20:20:28;;;;;;;1893.77;507.80;;;1.80;99.90;;;;;;5116807;28;20994;-75
2021/12/27 20:22:58;;;;;;;1344.43;351.80;;;1.80;99.90;;;;;;5116736;28;20904;-72
2021/12/27 20:25:29;;;;;;;1667.70;438.20;;;1.80;99.90;;;;;;5116953;28;20444;-72
2021/12/27 20:27:59;;;;;;;1341.67;304.50;;;1.80;99.90;;;;;;5115497;28;20949;-72
2021/12/27 20:30:27;;;;;;;1999.90;597.93;;;1.80;99.90;;;;;;5116484;28;20516;-72
2021/12/27 20:32:55;;;;;;;1615.07;327.83;;;1.80;99.90;;;;;;5116439;28;20430;-73
2021/12/27 20:35:24;;;;;;;1999.90;531.30;;;1.80;99.90;;;;;;5116247;28;20800;-73
2021/12/27 20:37:52;;;;;;;1114.57;281.50;;;1.80;99.90;;;;;;5116386;28;20994;-72
2021/12/27 20:40:20;;;;;;;1999.90;487.53;;;1.80;99.90;;;;;;5115015;28;20535;-71
2021/12/27 20:42:51;;;;;;;1817.13;438.37;;;1.80;99.90;;;;;;5116233;28;20431;-72
2021/12/27 20:45:19;;;;;;;1999.90;553.13;;;1.80;99.90;;;;;;5117145;28;20421;-71
2021/12/27 20:47:49;;;;;;;1999.90;540.50;;;1.80;99.90;;;;;;5116190;28;20432;-72
2021/12/27 20:50:19;;;;;;;1240.43;337.47;;;1.80;99.90;;;;;;5116185;28;20481;-72
2021/12/27 20:52:47;;;;;;;1841.40;435.20;;;1.80;99.90;;;;;;5114794;28;20862;-73
2021/12/27 20:55:17;;;;;;;1930.50;480.97;;;1.80;99.90;;;;;;5116077;28;20435;-72
2021/12/27 20:57:46;;;;;;;919.60;248.77;;;1.80;99.90;;;;;;5116535;28;20474;-72
2021/12/27 21:00:20;;;;;;;1453.90;387.40;;;1.80;99.90;;;;;;5115868;28;20443;-72
2021/12/27 21:02:49;;;;;;;1999.90;517.17;;;1.80;99.90;;;;;;5116089;28;20416;-72
2021/12/27 21:05:20;;;;;;;1785.10;419.23;;;1.80;99.90;;;;;;5115992;28;20435;-72
2021/12/27 21:07:50;;;;;;;1981.83;485.37;;;1.80;99.90;;;;;;5116349;27;20416;-72
2021/12/27 21:10:18;;;;;;;1657.23;398.40;;;1.80;99.90;;;;;;5115716;28;20470;-73
2021/12/27 21:12:47;;;;;;;1999.90;522.77;;;1.80;99.90;;;;;;5115145;28;20436;-72
2021/12/27 21:15:17;;;;;;;1528.47;386.90;;;1.80;99.90;;;;;;5115555;28;20457;-73
2021/12/27 21:17:45;;;;;;;1999.90;511.77;;;1.80;99.90;;;;;;5114255;28;20864;-73
2021/12/27 21:20:14;;;;;;;656.40;215.97;;;1.80;99.90;;;;;;5115630;28;20518;-73
2021/12/27 21:22:45;;;;;;;1716.03;423.33;;;1.80;99.90;;;;;;5116078;28;20408;-73
2021/12/27 21:25:14;;;;;;;1323.23;332.07;;;1.80;99.90;;;;;;5115705;28;20801;-72
2021/12/27 21:27:43;;;;;;;224.17;176.53;;;1.80;99.90;;;;;;5114270;28;20443;-72
2021/12/27 21:30:12;;;;;;;1129.47;353.57;;;1.90;99.90;;;;;;5115575;28;20459;-72
2021/12/27 21:32:42;;;;;;;397.27;180.37;;;1.90;99.90;;;;;;5115373;28;20459;-72
2021/12/27 21:35:13;;;;;;;721.10;328.50;;;1.90;99.90;;;;;;5115790;28;20512;-74
2021/12/27 21:37:42;;;;;;;740.90;301.63;;;1.90;99.90;;;;;;5116132;28;20412;-72
2021/12/27 21:40:14;;;;;;;536.20;191.47;;;1.90;99.90;;;;;;5115494;28;20916;-73
2021/12/27 21:42:43;;;;;;;1999.90;480.97;;;1.90;99.90;;;;;;5115439;28;20419;-72
2021/12/27 21:45:12;;;;;;;450.47;182.00;;;1.90;99.90;;;;;;5115678;28;20443;-72
2021/12/27 21:47:42;;;;;;;358.10;168.63;;;2.00;99.90;;;;;;5115667;28;20471;-72
2021/12/27 21:50:12;;;;;;;597.40;255.67;;;2.00;99.90;;;;;;5115131;28;20479;-72
2021/12/27 21:52:42;;;;;;;1163.33;331.70;;;2.00;99.90;;;;;;5114881;28;20823;-73
2021/12/27 21:55:12;;;;;;;1185.27;363.03;;;2.00;99.90;;;;;;5115351;27;20440;-72
2021/12/27 21:57:40;;;;;;;1460.37;381.27;;;2.00;99.90;;;;;;5115046;28;20443;-72
2021/12/27 22:00:13;;;;;;;828.53;285.10;;;2.00;99.90;;;;;;5114884;28;20433;-73
2021/12/27 22:02:43;;;;;;;1963.43;451.50;;;2.00;99.90;;;;;;5115153;28;20460;-72
2021/12/27 22:05:12;;;;;;;1543.40;380.23;;;2.00;99.90;;;;;;5114664;28;20448;-73
2021/12/27 22:07:41;;;;;;;805.23;298.63;;;2.00;99.90;;;;;;5114836;28;20522;-72
2021/12/27 22:10:11;;;;;;;370.17;168.30;;;2.00;99.90;;;;;;5114471;28;20964;-72
2021/12/27 22:12:40;;;;;;;1026.10;307.03;;;2.00;99.90;;;;;;5114532;28;20504;-73
2021/12/27 22:15:13;;;;;;;1096.83;307.77;;;2.00;99.90;;;;;;5114458;28;20432;-73
2021/12/27 22:17:43;;;;;;;299.93;167.23;;;2.10;99.90;;;;;;5114832;28;20443;-73
2021/12/27 22:20:14;;;;;;;1038.40;322.87;;;2.10;99.90;;;;;;5114341;28;20432;-73
2021/12/27 22:22:43;;;;;;;820.70;274.57;;;2.10;99.90;;;;;;5112953;28;20447;-73
2021/12/27 22:25:11;;;;;;;803.30;259.50;;;2.10;99.90;;;;;;5114637;28;20522;-74
2021/12/27 22:27:39;;;;;;;1039.37;293.93;;;2.10;99.90;;;;;;5114547;28;20450;-73
2021/12/27 22:30:11;;;;;;;1488.47;283.57;;;2.10;99.90;;;;;;5114306;28;20436;-73
2021/12/27 22:32:40;;;;;;;309.20;159.07;;;2.10;99.90;;;;;;5114332;28;20455;-73
2021/12/27 22:35:15;;;;;;;1378.70;407.20;;;2.10;99.90;;;;;;5113208;28;20439;-73
2021/12/27 22:37:43;;;;;;;182.03;103.27;;;2.10;99.90;;;;;;5125614;28;20449;-73
2021/12/27 22:40:14;;;;;;;547.97;256.00;;;2.20;99.90;;;;;;5129442;28;20535;-72
2021/12/27 22:42:42;;;;;;;516.53;214.47;;;2.10;99.90;;;;;;5134164;28;20419;-73
2021/12/27 22:45:14;;;;;;;892.67;268.63;;;2.10;99.90;;;;;;5134202;28;20431;-73
2021/12/27 22:47:43;;;;;;;438.50;211.23;;;2.10;99.90;;;;;;5133230;28;20461;-73
2021/12/27 22:50:12;;;;;;;861.07;319.07;;;2.10;99.90;;;;;;5135740;28;20514;-72
2021/12/27 22:52:43;;;;;;;936.83;306.00;;;2.20;99.90;;;;;;5136074;28;20500;-73
2021/12/27 22:55:13;;;;;;;1746.73;388.77;;;2.20;99.90;;;;;;5135734;28;20436;-73
2021/12/27 22:57:41;;;;;;;1208.07;391.47;;;2.10;99.90;;;;;;5131344;28;20446;-73
2021/12/27 23:00:15;;;;;;;771.33;279.47;;;2.10;99.90;;;;;;5136678;28;20424;-73
2021/12/27 23:02:43;;;;;;;318.03;223.27;;;2.10;99.90;;;;;;5136332;28;20416;-73
2021/12/27 23:05:11;;;;;;;280.10;171.23;;;2.20;99.90;;;;;;5120673;28;20445;-73
2021/12/27 23:07:41;;;;;;;505.20;191.13;;;2.20;99.90;;;;;;5115874;28;20435;-73
2021/12/27 23:10:10;;;;;;;630.97;274.57;;;2.20;99.90;;;;;;5114671;28;20530;-73
2021/12/27 23:12:38;;;;;;;119.13;109.33;;;2.20;99.90;;;;;;5114670;28;20470;-73
2021/12/27 23:15:08;;;;;;;370.90;194.67;;;2.20;99.90;;;;;;5113874;28;20523;-73
2021/12/27 23:17:36;;;;;;;281.73;193.93;;;2.20;99.90;;;;;;5114214;28;20560;-73
2021/12/27 23:20:06;;;;;;;187.60;131.40;;;2.20;99.90;;;;;;5113031;28;20454;-73
2021/12/27 23:22:34;;;;;;;561.73;259.70;;;2.20;99.90;;;;;;5113661;28;20461;-73
2021/12/27 23:25:05;;;;;;;158.70;67.03;;;2.20;99.90;;;;;;5113807;28;20464;-73
2021/12/27 23:27:33;;;;;;;274.47;99.03;;;2.20;99.90;;;;;;5114009;28;20468;-73
2021/12/27 23:30:01;;;;;;;245.37;99.63;;;2.20;99.90;;;;;;5114298;28;20820;-73
2021/12/27 23:32:35;;;;;;;192.00;98.50;;;2.20;99.90;;;;;;5113723;28;20564;-72
2021/12/27 23:35:03;;;;;;;364.50;142.87;;;2.20;99.90;;;;;;5114296;28;20420;-72
2021/12/27 23:37:31;;;;;;;253.87;145.00;;;2.20;99.90;;;;;;5117650;28;20441;-73
2021/12/27 23:40:00;;;;;;;219.13;107.83;;;2.30;99.90;;;;;;5116275;28;20452;-73
2021/12/27 23:42:29;;;;;;;308.70;177.13;;;2.30;99.90;;;;;;5117613;28;21006;-73
2021/12/27 23:44:57;;;;;;;443.77;228.50;;;2.30;99.90;;;;;;5117730;28;20442;-72
2021/12/27 23:47:25;;;;;;;298.50;183.10;;;2.30;99.90;;;;;;5117624;28;20441;-73
2021/12/27 23:49:54;;;;;;;210.13;116.53;;;2.30;99.90;;;;;;5117564;28;20809;-72
2021/12/27 23:52:22;;;;;;;121.17;110.10;;;2.30;99.90;;;;;;5117295;28;20482;-73
2021/12/27 23:54:50;;;;;;;422.93;170.33;;;2.30;99.90;;;;;;5117111;28;20928;-72
2021/12/27 23:57:23;;;;;;;722.97;237.97;;;2.30;99.90;;;;;;5117151;27;20510;-73
2021/12/27 23:59:53;;;;;;;216.30;129.93;;;2.30;99.90;;;;;;5116255;28;20518;-73
